Time;durP1;ratioP1;P1;durP2;ratioP2;P2;SDS_P1;SDS_P2;PMS_P1;PMS_P2;Temp;Humidity;BMP_temperature;BMP_pressure;BME280_temperature;BME280_humidity;BME280_pressure;Samples;Min_cycle;Max_cycle;Signal;HPM_P1;HPM_P2
2024/01/09 00:01:14;;;;;;;13.13;7.65;;;;;;;-9.39;73.24;146321.72;13077029;22;20011;-80
2024/01/09 00:06:16;;;;;;;17.67;8.07;;;;;;;-9.21;72.95;146366.13;13079021;22;20036;-80
2024/01/09 00:11:18;;;;;;;14.63;7.60;;;;;;;-9.54;73.62;146283.66;13050329;22;20019;-80
2024/01/09 00:16:20;;;;;;;12.07;8.85;;;;;;;-9.40;73.61;146319.19;13076158;22;20015;-80
2024/01/09 00:21:23;;;;;;;11.45;7.18;;;;;;;-9.62;74.26;146264.59;13075428;22;20457;-79
2024/01/09 00:26:24;;;;;;;15.63;7.97;;;;;;;-9.53;74.81;146286.19;13078482;22;20026;-81
2024/01/09 00:31:26;;;;;;;11.82;7.70;;;;;;;-9.75;75.37;146231.59;13048762;22;20449;-79
2024/01/09 00:36:28;;;;;;;18.20;8.40;;;;;;;-9.67;75.09;146251.91;13082925;22;20026;-81
2024/01/09 00:41:30;;;;;;;12.38;7.72;;;;;;;-9.79;76.52;146221.47;13072602;22;20015;-80
2024/01/09 00:46:32;;;;;;;16.73;7.85;;;;;;;-9.79;76.86;146222.72;13060876;22;20019;-80
2024/01/09 00:51:33;;;;;;;18.63;8.70;;;;;;;-9.71;76.16;146243.03;13050353;22;20019;-79
2024/01/09 00:56:35;;;;;;;14.65;7.80;;;;;;;-9.63;75.84;146260.81;13079942;22;20011;-80
2024/01/09 01:01:37;;;;;;;15.85;6.60;;;;;;;-9.76;76.62;146230.34;13055010;22;20044;-81
2024/01/09 01:06:44;;;;;;;12.85;8.10;;;;;;;-9.89;76.94;146197.34;13029919;22;20064;-81
2024/01/09 01:11:45;;;;;;;;;;;;;;;-10.09;78.64;146146.59;13082455;22;20011;-81
2024/01/09 01:16:47;;;;;;;14.70;8.43;;;;;;;-10.19;79.35;146122.50;13028565;22;19915;-81
2024/01/09 01:21:49;;;;;;;22.25;8.60;;;;;;;-9.95;78.58;146183.41;13080978;22;20030;-81
2024/01/09 01:26:51;;;;;;;10.05;7.72;;;;;;;-9.87;78.02;146201.16;13079421;22;20097;-81
2024/01/09 01:31:53;;;;;;;13.43;8.82;;;;;;;-10.06;78.55;146154.22;13076772;22;20070;-81
2024/01/09 01:36:55;;;;;;;12.57;9.30;;;;;;;-10.06;79.38;146155.47;13052143;22;20391;-80
2024/01/09 01:41:57;;;;;;;13.23;8.55;;;;;;;-10.03;79.47;146161.84;13091362;22;20031;-80
2024/01/09 01:46:59;;;;;;;16.77;8.48;;;;;;;-10.16;79.72;146130.13;13105128;22;20054;-79
2024/01/09 01:52:02;;;;;;;11.88;9.25;;;;;;;-10.19;79.97;146122.50;13108693;22;20010;-80
2024/01/09 01:57:05;;;;;;;9.25;7.82;;;;;;;-10.25;80.45;146108.63;13082934;22;20074;-79
2024/01/09 02:02:07;;;;;;;18.00;10.15;;;;;;;-10.20;80.33;146119.97;13080840;22;20049;-79
2024/01/09 02:07:09;;;;;;;10.05;7.20;;;;;;;-10.12;79.96;146139.03;13106886;22;20011;-79
2024/01/09 02:12:11;;;;;;;16.98;8.95;;;;;;;-10.10;80.29;146144.06;13103272;22;20017;-80
2024/01/09 02:17:13;;;;;;;15.40;9.68;;;;;;;-10.00;79.62;146169.47;13049380;22;20041;-80
2024/01/09 02:22:15;;;;;;;14.88;8.13;;;;;;;-9.96;79.56;146179.56;13081684;22;20015;-81
2024/01/09 02:27:38;;;;;;;15.25;8.30;;;;;;;-9.94;79.47;146184.69;13109423;22;20047;-80
2024/01/09 02:32:41;;;;;;;14.45;8.38;;;;;;;-10.16;80.47;146131.41;13110924;22;20011;-80
2024/01/09 02:37:43;;;;;;;17.88;9.77;;;;;;;-10.35;82.04;146083.25;13109918;22;20019;-80
2024/01/09 02:42:46;;;;;;;15.77;10.05;;;;;;;-10.38;81.93;146075.63;13083440;22;20044;-79
2024/01/09 02:47:48;;;;;;;13.88;8.68;;;;;;;-10.46;82.64;146055.34;13106973;22;20050;-79
2024/01/09 02:52:50;;;;;;;21.15;8.65;;;;;;;-10.62;82.66;146016.06;13104572;22;20019;-81
2024/01/09 02:57:52;;;;;;;10.90;6.70;;;;;;;-10.73;83.55;145988.16;13104947;22;20022;-79
2024/01/09 03:02:54;;;;;;;18.98;9.65;;;;;;;-10.69;83.85;145999.56;13109161;22;20061;-80
2024/01/09 03:07:55;;;;;;;16.25;9.25;;;;;;;-10.54;83.64;146036.31;13105415;22;20035;-80
2024/01/09 03:12:57;;;;;;;20.38;10.30;;;;;;;-10.54;83.31;146036.31;13106535;22;20047;-80
2024/01/09 03:18:05;;;;;;;15.07;8.75;;;;;;;-10.51;82.94;146043.94;13108704;22;20015;-82
2024/01/09 03:23:08;;;;;;;14.07;10.10;;;;;;;-10.68;83.58;146002.09;13059671;22;20019;-80
2024/01/09 03:28:09;;;;;;;17.65;9.23;;;;;;;-10.73;84.30;145989.41;13109091;22;20012;-79
2024/01/09 03:33:11;;;;;;;15.80;9.07;;;;;;;-10.70;83.70;145995.78;13108439;22;20019;-81
2024/01/09 03:38:13;;;;;;;11.60;8.23;;;;;;;-10.81;85.13;145969.13;13084038;22;20019;-82
2024/01/09 03:43:16;;;;;;;13.90;10.50;;;;;;;-10.78;85.28;145976.75;13080219;22;20055;-79
2024/01/09 03:48:17;;;;;;;19.45;10.50;;;;;;;-10.75;85.17;145984.38;13109372;22;20026;-81
2024/01/09 03:53:19;;;;;;;15.00;10.15;;;;;;;-10.87;85.49;145952.66;13082155;22;20061;-80
2024/01/09 03:58:21;;;;;;;11.43;7.45;;;;;;;-10.87;85.96;145953.94;13108731;22;20016;-80
2024/01/09 04:03:37;;;;;;;15.38;8.75;;;;;;;-10.87;85.89;145952.66;13107929;22;20000;-80
2024/01/09 04:08:39;;;;;;;;;;;;;;;-11.15;86.49;145884.25;13081706;22;20006;-81
2024/01/09 04:13:41;;;;;;;14.02;8.25;;;;;;;-10.91;85.61;145942.53;13083690;22;19962;-79
2024/01/09 04:18:43;;;;;;;11.30;7.97;;;;;;;-10.89;85.70;145948.84;13107990;22;20007;-79
2024/01/09 04:23:45;;;;;;;11.35;9.10;;;;;;;-10.98;86.00;145926.03;13106955;22;19999;-80
2024/01/09 04:28:47;;;;;;;12.02;9.10;;;;;;;-10.83;84.67;145962.81;13109303;22;20011;-80
2024/01/09 04:33:48;;;;;;;14.43;9.60;;;;;;;-10.78;84.96;145976.75;13077445;22;20019;-81
2024/01/09 04:38:50;;;;;;;10.90;9.15;;;;;;;-11.12;85.80;145890.53;13080224;22;20007;-80
2024/01/09 04:43:52;;;;;;;18.73;9.10;;;;;;;-11.18;85.78;145877.88;13105331;22;19999;-80
2024/01/09 04:48:54;;;;;;;21.63;9.85;;;;;;;-11.17;85.73;145879.16;13077944;22;20098;-81
2024/01/09 04:53:55;;;;;;;14.68;8.48;;;;;;;-11.18;86.02;145876.63;13099503;22;20112;-81
2024/01/09 04:58:57;;;;;;;14.10;10.40;;;;;;;-11.20;85.55;145872.84;13105687;22;20015;-82
2024/01/09 05:03:59;;;;;;;22.52;9.73;;;;;;;-11.47;87.66;145805.63;13081686;22;20007;-80
2024/01/09 05:09:01;;;;;;;22.90;10.82;;;;;;;-11.49;87.97;145799.34;13107998;22;19999;-80
2024/01/09 05:14:03;;;;;;;22.92;10.60;;;;;;;-11.54;87.95;145787.94;13102572;22;20020;-81
2024/01/09 05:19:04;;;;;;;19.00;10.07;;;;;;;-11.62;88.65;145766.41;13104462;22;20022;-80
2024/01/09 05:24:07;;;;;;;25.98;11.00;;;;;;;-11.67;89.20;145755.00;13083103;22;20003;-79
2024/01/09 05:29:08;;;;;;;16.83;9.13;;;;;;;-11.68;89.80;145752.47;13089343;22;20002;-80
2024/01/09 05:34:10;;;;;;;11.05;9.85;;;;;;;-11.40;87.87;145822.13;13115825;22;20062;-80
2024/01/09 05:39:12;;;;;;;17.42;9.93;;;;;;;-11.22;86.80;145866.47;13115591;22;20015;-80
2024/01/09 05:44:14;;;;;;;22.77;10.00;;;;;;;-11.32;86.24;145841.16;13088228;22;20062;-79
2024/01/09 05:49:16;;;;;;;22.42;10.23;;;;;;;-11.57;87.86;145780.31;13115253;22;20021;-81
2024/01/09 05:54:17;;;;;;;33.70;12.02;;;;;;;-11.40;87.89;145822.13;13114828;22;19999;-81
2024/01/09 05:59:19;;;;;;;18.35;10.10;;;;;;;-11.42;87.44;145817.03;13088158;22;20007;-81
2024/01/09 06:04:21;;;;;;;15.18;10.88;;;;;;;-11.51;87.53;145794.25;13114692;22;20000;-80
2024/01/09 06:09:23;;;;;;;22.38;10.73;;;;;;;-11.58;87.96;145776.53;13082937;22;20019;-80
2024/01/09 06:14:24;;;;;;;103.72;30.02;;;;;;;-11.50;87.15;145796.81;13086028;22;20026;-81
2024/01/09 06:19:26;;;;;;;18.35;11.48;;;;;;;-11.37;86.50;145829.75;13102866;22;20045;-80
2024/01/09 06:24:28;;;;;;;19.27;12.07;;;;;;;-11.37;85.76;145829.75;13112121;22;20018;-81
2024/01/09 06:29:30;;;;;;;12.50;9.68;;;;;;;-11.32;85.55;145842.41;13112947;22;19995;-80
2024/01/09 06:34:34;;;;;;;25.88;10.57;;;;;;;-11.52;86.54;145792.97;13085105;22;20003;-80
2024/01/09 06:39:36;;;;;;;16.35;11.32;;;;;;;-11.50;87.52;145798.06;13081118;22;20047;-81
2024/01/09 06:44:38;;;;;;;17.50;10.90;;;;;;;-11.70;88.06;145748.66;13080735;22;20004;-82
2024/01/09 06:49:43;;;;;;;21.25;11.23;;;;;;;-11.37;86.60;145829.75;13081252;22;20102;-80
2024/01/09 06:54:45;;;;;;;21.50;13.75;;;;;;;-11.41;85.82;145818.34;13110012;22;20030;-80
2024/01/09 06:59:47;;;;;;;17.60;10.40;;;;;;;-11.47;87.01;145804.38;13106075;22;20011;-80
2024/01/09 07:04:49;;;;;;;19.80;9.98;;;;;;;-11.69;87.81;145751.16;13103827;22;20015;-80
2024/01/09 07:09:51;;;;;;;19.80;11.48;;;;;;;-11.83;88.92;145715.78;13103009;22;20015;-81
2024/01/09 07:14:52;;;;;;;23.63;11.60;;;;;;;-11.74;89.79;145738.50;13106538;22;20015;-82
2024/01/09 07:19:54;;;;;;;16.90;11.10;;;;;;;-11.83;90.59;145715.78;13080712;22;20018;-81
2024/01/09 07:24:56;;;;;;;20.33;12.35;;;;;;;-11.35;90.07;145833.53;13100985;22;20067;-79
2024/01/09 07:29:58;;;;;;;23.33;11.85;;;;;;;-11.40;87.95;145820.88;13101629;22;20059;-79
2024/01/09 07:34:59;;;;;;;39.75;14.55;;;;;;;-11.62;89.37;145767.66;13054431;22;20003;-79
2024/01/09 07:40:03;;;;;;;20.63;13.23;;;;;;;-11.55;89.91;145785.41;13098626;22;20048;-78
2024/01/09 07:45:05;;;;;;;24.83;11.80;;;;;;;-11.41;89.40;145819.63;13070717;22;20019;-78
2024/01/09 07:50:08;;;;;;;29.63;11.60;;;;;;;-11.46;89.60;145806.94;13088141;22;20015;-78
2024/01/09 07:55:10;;;;;;;17.92;12.38;;;;;;;-11.43;89.05;145814.53;13094014;22;20015;-78
2024/01/09 08:00:12;;;;;;;21.80;11.85;;;;;;;-11.41;89.72;145819.63;13053685;22;20011;-79
2024/01/09 08:05:14;;;;;;;14.95;11.23;;;;;;;-11.38;89.05;145825.91;13073239;22;20020;-79
2024/01/09 08:10:16;;;;;;;28.33;13.05;;;;;;;-11.36;89.76;145832.28;13087739;22;20063;-78
2024/01/09 08:15:18;;;;;;;22.88;13.20;;;;;;;-11.35;90.01;145833.53;13058885;22;20067;-79
2024/01/09 08:20:26;;;;;;;27.23;13.07;;;;;;;-11.10;89.49;145895.63;10697223;27;20856;-74
2024/01/09 08:25:28;;;;;;;18.45;11.48;;;;;;;-11.16;88.67;145881.66;10663719;27;20455;-74
2024/01/09 08:30:30;;;;;;;17.55;11.65;;;;;;;-11.06;87.81;145907.03;10663627;27;20103;-74
2024/01/09 08:35:34;;;;;;;32.28;12.55;;;;;;;-11.02;87.78;145917.19;10663888;27;20130;-75
2024/01/09 08:40:36;;;;;;;22.85;12.45;;;;;;;-10.83;86.77;145964.06;10664623;27;20043;-75
2024/01/09 08:45:41;;;;;;;22.67;12.85;;;;;;;-10.90;85.89;145946.31;10665517;27;20100;-75
2024/01/09 08:50:43;;;;;;;30.17;15.25;;;;;;;-10.94;87.01;145937.44;10664653;27;20043;-75
2024/01/09 08:55:44;;;;;;;28.10;13.15;;;;;;;-10.88;85.32;145950.16;10664271;27;20050;-74
2024/01/09 09:00:49;;;;;;;23.10;13.48;;;;;;;-10.90;86.33;145946.31;10664831;27;20035;-75
2024/01/09 09:05:51;;;;;;;26.67;14.15;;;;;;;-10.85;85.33;145957.72;10664163;27;20074;-74
2024/01/09 09:10:52;;;;;;;28.08;12.27;;;;;;;-10.88;85.83;145950.16;10663996;27;20047;-75
2024/01/09 09:15:54;;;;;;;27.00;13.10;;;;;;;-10.52;84.59;146040.16;10663280;27;20039;-75
2024/01/09 09:20:56;;;;;;;27.58;13.82;;;;;;;-10.54;84.85;146036.31;10662779;27;20120;-75
2024/01/09 09:25:58;;;;;;;31.10;14.23;;;;;;;-10.39;84.11;146073.13;10662317;27;20035;-75
2024/01/09 09:31:01;;;;;;;25.42;12.68;;;;;;;-10.26;82.28;146104.81;10621666;27;20043;-75
2024/01/09 09:36:06;;;;;;;29.00;12.07;;;;;;;-10.44;82.64;146060.44;10634209;27;20497;-75
2024/01/09 09:41:08;;;;;;;18.05;14.13;;;;;;;-10.29;82.11;146097.19;10634389;27;20047;-76
2024/01/09 09:46:18;;;;;;;32.78;15.02;;;;;;;-10.10;80.41;146144.06;10632883;27;20039;-75
2024/01/09 09:51:21;;;;;;;23.38;14.20;;;;;;;-10.20;81.35;146121.25;10633558;27;20050;-75
2024/01/09 09:56:27;;;;;;;26.67;13.48;;;;;;;-10.20;80.56;146119.97;10633003;27;20031;-77
2024/01/09 10:01:30;;;;;;;38.95;16.15;;;;;;;-10.07;80.87;146152.97;10632895;27;20067;-75
2024/01/09 10:06:33;;;;;;;27.67;13.38;;;;;;;-10.13;80.54;146136.50;10633916;27;20032;-75
2024/01/09 10:11:35;;;;;;;31.38;14.98;;;;;;;-10.05;80.81;146156.75;10634227;27;20039;-75
2024/01/09 10:16:58;;;;;;;35.10;14.23;;;;;;;-9.67;78.83;146253.19;10632962;27;20039;-77
2024/01/09 10:22:00;;;;;;;35.25;14.43;;;;;;;-9.96;80.08;146179.56;10631790;27;20067;-76
2024/01/09 10:27:02;;;;;;;34.15;14.80;;;;;;;-10.00;80.73;146169.47;10632795;27;20047;-75
2024/01/09 10:32:04;;;;;;;34.40;16.13;;;;;;;-9.99;81.08;146173.25;10632672;27;20050;-75
2024/01/09 10:37:09;;;;;;;29.73;16.63;;;;;;;-9.85;80.73;146207.50;10631968;27;20063;-75
2024/01/09 10:42:11;;;;;;;24.33;12.70;;;;;;;-9.55;79.33;146281.13;10630017;27;20061;-75
2024/01/09 10:47:17;;;;;;;30.30;14.55;;;;;;;-9.65;80.44;146256.97;10631588;27;20062;-75
2024/01/09 10:52:20;;;;;;;31.27;15.55;;;;;;;-9.30;79.07;146344.56;10631770;27;20071;-76
2024/01/09 10:57:22;;;;;;;26.48;14.00;;;;;;;-9.36;78.50;146329.34;10631277;27;20037;-75
2024/01/09 11:02:25;;;;;;;24.20;14.05;;;;;;;-8.96;77.92;146429.63;10630138;27;20446;-75
2024/01/09 11:07:30;;;;;;;30.52;14.20;;;;;;;-8.71;76.34;146490.63;10628878;27;20425;-75
2024/01/09 11:12:36;;;;;;;24.48;14.98;;;;;;;-8.54;76.56;146533.81;10630370;27;20456;-75
2024/01/09 11:17:44;;;;;;;36.67;15.82;;;;;;;-7.52;74.57;146787.97;10627844;27;20049;-75
2024/01/09 11:22:46;;;;;;;31.30;16.80;;;;;;;-5.88;68.60;147197.66;10630215;27;20038;-75
2024/01/09 11:27:50;;;;;;;33.88;15.55;;;;;;;-3.59;60.85;147768.75;10629096;27;20444;-76
2024/01/09 11:32:52;;;;;;;31.27;16.77;;;;;;;-2.41;52.43;148063.72;10630246;27;20049;-77
2024/01/09 11:37:58;;;;;;;35.88;17.48;;;;;;;-1.14;49.00;148383.28;10628776;27;20071;-77
2024/01/09 11:43:00;;;;;;;37.50;18.67;;;;;;;-1.71;48.76;148240.06;10627114;27;20518;-77
2024/01/09 11:48:01;;;;;;;27.75;17.80;;;;;;;-1.58;51.44;148273.31;10629361;27;20402;-76
2024/01/09 11:53:03;;;;;;;34.72;17.05;;;;;;;-1.91;47.98;148188.91;10627741;27;20095;-78
2024/01/09 11:58:06;;;;;;;36.63;17.15;;;;;;;-1.94;51.20;148182.56;10628602;27;20047;-76
2024/01/09 12:03:08;;;;;;;29.05;17.13;;;;;;;-2.65;55.26;148004.97;10626939;27;20074;-76
2024/01/09 12:08:09;;;;;;;43.53;16.70;;;;;;;-3.90;52.12;147692.19;10626663;27;20043;-76
2024/01/09 12:13:11;;;;;;;43.60;16.27;;;;;;;-3.36;53.57;147827.50;10626890;27;20411;-76
2024/01/09 12:18:13;;;;;;;30.08;17.33;;;;;;;-3.22;53.92;147861.94;10627326;27;20030;-75
2024/01/09 12:23:16;;;;;;;26.35;15.60;;;;;;;-3.08;51.76;147897.69;10627264;27;20039;-76
2024/01/09 12:28:18;;;;;;;29.15;16.02;;;;;;;-3.33;53.79;147835.13;10627473;28;20040;-75
2024/01/09 12:33:20;;;;;;;34.17;16.90;;;;;;;-4.20;55.28;147615.69;10627462;28;20109;-74
2024/01/09 12:38:22;;;;;;;32.28;15.95;;;;;;;-5.16;60.26;147377.28;10627097;27;20035;-76
2024/01/09 12:43:27;;;;;;;35.08;16.73;;;;;;;-5.68;64.72;147247.31;10626304;27;20043;-76
2024/01/09 12:48:30;;;;;;;38.95;15.98;;;;;;;-5.44;61.61;147305.94;10627451;27;20499;-74
2024/01/09 12:53:33;;;;;;;32.03;15.77;;;;;;;-5.66;62.78;147252.44;10627468;28;20042;-74
2024/01/09 12:58:40;;;;;;;32.92;16.38;;;;;;;-6.12;65.97;147137.84;10626443;28;20045;-75
2024/01/09 13:03:43;;;;;;;32.38;16.00;;;;;;;-6.28;67.70;147097.13;10611184;27;20459;-75
2024/01/09 13:08:46;;;;;;;33.42;16.15;;;;;;;-6.51;68.98;147038.53;10633038;27;20070;-74
2024/01/09 13:13:47;;;;;;;25.95;15.73;;;;;;;-6.61;70.46;147014.38;10633637;27;20043;-75
2024/01/09 13:18:49;;;;;;;33.20;15.95;;;;;;;-6.55;70.16;147028.34;10633255;27;20035;-74
2024/01/09 13:23:51;;;;;;;34.13;15.18;;;;;;;-6.21;69.40;147114.91;10632038;27;20092;-75
2024/01/09 13:28:58;;;;;;;44.17;17.38;;;;;;;-6.40;69.89;147066.56;10615514;27;20039;-74
2024/01/09 13:34:03;;;;;;;30.90;16.25;;;;;;;-6.36;69.58;147076.75;10633277;27;20062;-75
2024/01/09 13:39:09;;;;;;;38.42;17.15;;;;;;;-6.45;71.02;147053.84;10632243;27;20086;-75
2024/01/09 13:44:12;;;;;;;33.33;14.50;;;;;;;-6.32;70.42;147086.94;10632084;27;20039;-74
2024/01/09 13:49:13;;;;;;;39.53;15.68;;;;;;;-6.53;71.10;147033.47;10632185;27;20440;-74
2024/01/09 13:54:15;;;;;;;37.13;17.90;;;;;;;-6.15;69.85;147130.22;10632131;27;20067;-75
2024/01/09 13:59:17;;;;;;;38.22;17.35;;;;;;;-6.29;70.70;147094.53;10632826;27;20095;-75
2024/01/09 14:04:19;;;;;;;38.22;17.77;;;;;;;-6.42;71.49;147062.75;10632142;27;20038;-75
2024/01/09 14:09:21;;;;;;;33.85;17.20;;;;;;;-6.54;72.65;147032.19;10629173;27;20451;-75
2024/01/09 14:14:23;;;;;;;37.92;16.67;;;;;;;-6.29;72.55;147093.28;10630000;27;20039;-75
2024/01/09 14:19:25;;;;;;;33.85;16.77;;;;;;;-6.33;72.71;147084.34;10631644;27;20091;-75
2024/01/09 14:24:27;;;;;;;39.70;17.25;;;;;;;-6.12;72.25;147137.84;10631380;27;20043;-74
2024/01/09 14:29:29;;;;;;;42.28;17.23;;;;;;;-6.12;72.89;147136.56;10629831;27;20039;-74
2024/01/09 14:34:31;;;;;;;24.42;17.23;;;;;;;-6.08;71.92;147145.50;10630838;27;20100;-74
2024/01/09 14:39:34;;;;;;;30.52;16.92;;;;;;;-6.06;71.29;147150.56;10630100;27;20043;-74
2024/01/09 14:44:36;;;;;;;31.48;15.02;;;;;;;-5.88;68.79;147197.66;10630539;27;20483;-74
2024/01/09 14:49:38;;;;;;;34.90;15.20;;;;;;;-5.89;68.60;147195.13;10630024;27;20039;-74
2024/01/09 14:54:42;;;;;;;35.40;15.18;;;;;;;-6.11;69.36;147140.41;10629614;27;20063;-75
2024/01/09 14:59:44;;;;;;;34.10;16.25;;;;;;;-6.26;70.42;147102.19;10629686;27;20057;-75
2024/01/09 15:04:46;;;;;;;42.33;18.20;;;;;;;-6.07;69.66;147149.28;10630369;27;20042;-75
2024/01/09 15:09:48;;;;;;;38.28;16.73;;;;;;;-6.13;70.16;147135.31;10630209;27;20088;-74
2024/01/09 15:14:50;;;;;;;40.63;16.80;;;;;;;-6.50;71.00;147042.38;10629345;27;20045;-75
2024/01/09 15:19:52;;;;;;;45.63;17.48;;;;;;;-6.65;71.66;147005.44;10628566;27;20529;-74
2024/01/09 15:24:54;;;;;;;41.40;18.25;;;;;;;-6.71;72.50;146990.19;10630502;27;20088;-75
2024/01/09 15:29:56;;;;;;;40.95;17.02;;;;;;;-6.72;73.25;146987.66;10632238;27;20043;-74
2024/01/09 15:34:57;;;;;;;34.55;17.15;;;;;;;-6.71;73.19;146990.19;10628596;27;20100;-74
2024/01/09 15:40:13;;;;;;;36.22;16.58;;;;;;;-6.76;72.76;146977.47;10626744;27;20470;-74
2024/01/09 15:45:18;;;;;;;43.10;16.88;;;;;;;-6.99;73.96;146918.97;10628276;27;20039;-74
2024/01/09 15:50:23;;;;;;;36.95;18.55;;;;;;;-6.91;74.58;146940.56;10628904;27;20050;-74
2024/01/09 15:55:25;;;;;;;33.50;16.77;;;;;;;-7.11;74.59;146889.69;10628356;27;20051;-74
2024/01/09 16:00:27;;;;;;;41.65;17.58;;;;;;;-7.10;75.05;146892.22;10629110;27;20081;-75
2024/01/09 16:05:31;;;;;;;38.60;17.80;;;;;;;-7.13;75.52;146885.88;10626982;27;20043;-74
2024/01/09 16:10:33;;;;;;;43.13;17.60;;;;;;;-7.30;76.43;146842.66;10626002;27;20027;-74
2024/01/09 16:15:38;;;;;;;41.13;16.90;;;;;;;-7.38;77.02;146823.56;10626185;27;20047;-73
2024/01/09 16:20:40;;;;;;;31.60;17.10;;;;;;;-7.15;76.61;146880.78;10626984;27;20066;-73
2024/01/09 16:25:41;;;;;;;40.63;17.80;;;;;;;-7.32;76.37;146837.53;10627853;27;20103;-73
2024/01/09 16:30:43;;;;;;;32.22;16.38;;;;;;;-7.38;77.48;146823.56;10627051;27;20066;-74
2024/01/09 16:35:45;;;;;;;45.95;17.40;;;;;;;-7.36;77.64;146828.63;10627021;27;20043;-74
2024/01/09 16:40:47;;;;;;;42.53;17.02;;;;;;;-7.36;77.37;146827.34;10632025;27;20039;-74
2024/01/09 16:45:49;;;;;;;50.30;18.73;;;;;;;-7.39;77.81;146819.75;10634487;27;20135;-74
2024/01/09 16:50:51;;;;;;;29.77;16.00;;;;;;;-7.29;77.58;146843.91;10634328;27;20035;-74
2024/01/09 16:55:54;;;;;;;29.13;16.00;;;;;;;-7.55;79.04;146780.31;10633933;27;20061;-73
2024/01/09 17:00:56;;;;;;;28.88;15.90;;;;;;;-7.70;79.82;146743.47;10632729;27;20043;-74
2024/01/09 17:05:58;;;;;;;33.15;16.15;;;;;;;-7.73;80.58;146734.56;10634098;27;20043;-74
2024/01/09 17:11:03;;;;;;;37.55;16.88;;;;;;;-7.72;80.20;146737.09;10635792;27;20401;-74
2024/01/09 17:16:08;;;;;;;33.95;16.42;;;;;;;-7.74;80.63;146732.03;10634841;27;20047;-75
2024/01/09 17:21:13;;;;;;;34.95;15.40;;;;;;;-7.67;80.75;146749.78;10635466;27;20046;-75
2024/01/09 17:26:15;;;;;;;40.47;17.23;;;;;;;-7.96;80.87;146678.63;10635932;27;20098;-74
2024/01/09 17:31:17;;;;;;;36.65;15.85;;;;;;;-7.92;81.61;146687.53;10634976;27;20046;-73
2024/01/09 17:36:19;;;;;;;30.75;16.00;;;;;;;-7.69;80.70;146744.72;10634140;27;20093;-73
2024/01/09 17:41:21;;;;;;;40.80;16.58;;;;;;;-7.78;81.08;146721.84;10633033;27;20454;-74
2024/01/09 17:46:23;;;;;;;30.77;14.88;;;;;;;-8.02;81.76;146663.34;10632318;27;20088;-74
2024/01/09 17:51:24;;;;;;;35.03;16.00;;;;;;;-7.97;81.65;146674.78;10631737;27;20039;-73
2024/01/09 17:56:26;;;;;;;27.67;14.82;;;;;;;-7.89;81.40;146695.13;10630542;27;20057;-75
2024/01/09 18:01:28;;;;;;;31.48;15.77;;;;;;;-8.14;82.57;146634.13;10631830;27;20035;-73
2024/01/09 18:06:30;;;;;;;35.28;16.42;;;;;;;-8.38;83.62;146573.16;10631272;27;20050;-74
2024/01/09 18:11:34;;;;;;;29.02;15.30;;;;;;;-8.21;83.56;146615.06;10632272;27;20067;-73
2024/01/09 18:16:37;;;;;;;42.75;19.02;;;;;;;-8.01;83.38;146664.59;10631046;27;20039;-74
2024/01/09 18:21:42;;;;;;;34.42;16.30;;;;;;;-8.16;83.52;146629.03;10631035;27;20043;-74
2024/01/09 18:26:44;;;;;;;40.88;17.08;;;;;;;-8.02;83.44;146663.34;10631212;27;20075;-74
2024/01/09 18:31:55;;;;;;;38.42;16.77;;;;;;;-7.71;81.80;146740.88;10629995;27;20035;-74
2024/01/09 18:36:57;;;;;;;33.63;16.27;;;;;;;-8.02;81.99;146662.06;10628704;27;20049;-74
2024/01/09 18:41:59;;;;;;;33.65;16.33;;;;;;;-8.25;83.51;146606.16;10631557;27;20039;-75
2024/01/09 18:47:00;;;;;;;37.50;17.02;;;;;;;-8.47;84.36;146550.31;10631444;27;20449;-74
2024/01/09 18:52:04;;;;;;;45.70;18.80;;;;;;;-8.29;84.16;146594.72;10631253;27;20035;-74
2024/01/09 18:57:06;;;;;;;32.22;15.77;;;;;;;-8.60;84.10;146518.53;10630976;27;20039;-75
2024/01/09 19:02:08;;;;;;;42.25;16.45;;;;;;;-8.71;85.69;146490.63;10629932;27;20058;-74
2024/01/09 19:07:11;;;;;;;37.95;17.48;;;;;;;-8.73;86.53;146486.78;10630537;27;20039;-75
2024/01/09 19:12:14;;;;;;;33.20;17.40;;;;;;;-8.61;85.01;146514.75;10629611;27;20092;-74
2024/01/09 19:17:16;;;;;;;35.83;14.95;;;;;;;-8.71;85.71;146490.63;10629894;27;20043;-74
2024/01/09 19:22:18;;;;;;;34.20;14.73;;;;;;;-8.88;86.90;146447.44;10628754;27;20133;-73
2024/01/09 19:27:20;;;;;;;29.85;15.77;;;;;;;-8.88;86.96;146447.44;10611120;27;20043;-74
2024/01/09 19:32:24;;;;;;;29.30;14.23;;;;;;;-9.29;87.49;146345.88;10629539;27;20041;-75
2024/01/09 19:37:26;;;;;;;42.15;17.25;;;;;;;-9.32;88.63;146339.50;10629436;27;20483;-74
2024/01/09 19:42:27;;;;;;;37.17;16.85;;;;;;;-8.70;86.42;146494.41;10629066;27;20498;-74
2024/01/09 19:47:29;;;;;;;44.50;18.05;;;;;;;-8.85;86.51;146456.34;10628770;27;20035;-75
2024/01/09 19:52:32;;;;;;;51.03;19.75;;;;;;;-9.01;87.59;146415.69;10631744;27;20070;-75
2024/01/09 19:57:34;;;;;;;47.67;17.63;;;;;;;-9.18;88.72;146375.03;10637499;27;20047;-75
2024/01/09 20:02:35;;;;;;;40.25;17.55;;;;;;;-9.24;88.76;146358.56;10633830;27;20100;-75
2024/01/09 20:07:37;;;;;;;35.20;15.13;;;;;;;-9.07;87.64;146400.41;10631454;27;20050;-74
2024/01/09 20:12:45;;;;;;;40.35;17.20;;;;;;;-9.08;88.47;146397.88;10632101;27;20425;-74
2024/01/09 20:17:48;;;;;;;35.20;16.65;;;;;;;-9.20;89.22;146368.72;10632800;27;20055;-76
2024/01/09 20:22:50;;;;;;;36.78;18.10;;;;;;;-9.29;88.07;146345.88;10632419;27;20043;-74
2024/01/09 20:27:52;;;;;;;32.67;15.35;;;;;;;-9.45;89.71;146307.75;10630091;28;20065;-74
2024/01/09 20:32:54;;;;;;;41.22;20.67;;;;;;;-9.24;88.73;146359.81;10631995;27;20449;-73
2024/01/09 20:37:56;;;;;;;82.45;26.20;;;;;;;-9.18;88.01;146375.03;10631224;27;20043;-75
2024/01/09 20:42:58;;;;;;;27.90;15.68;;;;;;;-9.31;88.14;146340.75;10633066;27;20046;-74
2024/01/09 20:48:02;;;;;;;28.00;16.63;;;;;;;-9.50;88.50;146293.81;10630529;28;20031;-75
2024/01/09 20:53:04;;;;;;;37.90;15.93;;;;;;;-9.76;90.52;146229.09;10630365;27;20163;-75
2024/01/09 20:58:06;;;;;;;40.67;18.00;;;;;;;-9.38;89.48;146324.28;10629966;27;20091;-75
2024/01/09 21:03:08;;;;;;;55.35;19.40;;;;;;;-9.49;89.78;146296.34;10630477;27;20072;-74
2024/01/09 21:08:10;;;;;;;32.83;16.98;;;;;;;-9.83;91.15;146211.31;10629256;27;20398;-74
2024/01/09 21:13:12;;;;;;;42.22;18.80;;;;;;;-9.81;91.67;146217.66;10629166;27;20035;-74
2024/01/09 21:18:15;;;;;;;45.63;19.15;;;;;;;-9.83;91.73;146211.31;10628956;27;20039;-75
2024/01/09 21:23:18;;;;;;;39.40;18.98;;;;;;;-10.04;92.05;146160.59;10628289;27;20115;-74
2024/01/09 21:28:35;;;;;;;35.47;17.70;;;;;;;-9.89;92.48;146196.09;10634347;27;20039;-74
2024/01/09 21:33:37;;;;;;;33.33;17.25;;;;;;;-9.66;91.16;146255.72;10635594;27;20047;-74
2024/01/09 21:38:40;;;;;;;46.58;18.05;;;;;;;-9.54;88.63;146284.91;10635947;27;20073;-74
2024/01/09 21:43:42;;;;;;;43.00;18.98;;;;;;;-10.11;89.43;146142.81;10634125;27;20095;-74
2024/01/09 21:48:44;;;;;;;33.88;15.13;;;;;;;-10.17;91.78;146127.59;10635916;27;20059;-75
2024/01/09 21:53:46;;;;;;;38.88;16.92;;;;;;;-10.10;91.33;146145.34;10635113;27;20039;-74
2024/01/09 21:58:48;;;;;;;44.55;16.35;;;;;;;-9.93;90.95;146188.47;10633337;27;20050;-74
2024/01/09 22:03:49;;;;;;;32.25;19.08;;;;;;;-9.94;90.44;146185.94;10635176;27;20099;-75
2024/01/09 22:08:52;;;;;;;51.83;19.73;;;;;;;-9.97;91.87;146178.31;10633414;27;20125;-74
2024/01/09 22:13:54;;;;;;;42.00;18.38;;;;;;;-9.94;91.63;146184.69;10633480;27;20053;-74
2024/01/09 22:18:56;;;;;;;50.88;19.13;;;;;;;-9.89;90.55;146197.34;10632385;27;20046;-74
2024/01/09 22:24:01;;;;;;;45.45;18.98;;;;;;;-10.26;91.79;146106.09;10630983;27;20050;-74
2024/01/09 22:29:05;;;;;;;48.95;20.80;;;;;;;-10.09;92.82;146146.59;10631617;27;20058;-74
2024/01/09 22:34:07;;;;;;;47.97;20.45;;;;;;;-9.96;91.43;146179.56;10632536;27;20046;-74